Nearby METAR Reports

 

KSJC - San Jose, California, USA
Distance from station: NO 14km
Uppdaterad: 2020-05-31 21:53
Övervägande molnigt
Övervägande molnigt
 Vind från V
Vind: V 6 km/h
Temperatur: 20°C
Daggpunkt: 12°C
Luftfuktighet: 60%
Barometer: 1015.2 hPa
Clouds: Övervägande molnigt
Visibility: 16 km
Cloud details: Few Clouds 335 m
Delvis molnigt 1250 m
Övervägande molnigt 3048 m
2020/05/31 19:53 KSJC 311953Z 27003KT 10SM FEW011 SCT041 BKN100 20/12 A2998 RMK AO2 SLP151 T02000117 $
KNUQ - Moffett Nas/Mtn, California, USA
Distance from station: N 14km
Uppdaterad: 2020-05-31 15:55
NOT Current
Genommulet
Genommulet
 Vind från NNV
Vind: NNV 9 km/h
Temperatur: 16°C
Daggpunkt: 13°C
Luftfuktighet: 83%
Barometer: 1014.9 hPa
Clouds: Genommulet
Visibility: 16 km
Cloud details: Genommulet 549 m
2020/05/31 13:55 KNUQ 311355Z AUTO 33005KT 10SM OVC018 16/13 A2997 RMK AO2
 
KPAO - Palo Alto, California, USA
Distance from station: NNV 23km
Uppdaterad: 2020-05-31 21:47
Övervägande molnigt
Övervägande molnigt
 Vind från N
Vind: N 15 km/h
Temperatur: 18°C
Daggpunkt: 13°C
Luftfuktighet: 73%
Barometer: 1015.9 hPa
Clouds: Övervägande molnigt
Visibility: 16 km
Cloud details: Övervägande molnigt 1067 m
2020/05/31 19:47 KPAO 311947Z 01008KT 10SM BKN035 18/13 A3000
KRHV - San Jose/Reid, California, USA
Distance from station: ONO 19km
Uppdaterad: 2020-05-31 21:47
Genommulet
Genommulet
 Vind från calm
Vind: Vindstilla
Temperatur: 21°C
Daggpunkt: 12°C
Luftfuktighet: 57%
Barometer: 1015.6 hPa
Clouds: Genommulet
Visibility: 16 km
Cloud details: Övervägande molnigt 1067 m
Genommulet 3048 m
2020/05/31 19:47 KRHV 311947Z 00000KT 10SM BKN035 OVC100 21/12 A2999
 
KOAK - Oakland, California, USA
Distance from station: NNV 50km
Uppdaterad: 2020-05-31 21:53
Genommulet
Genommulet
 Vind från V
Vind: V 13 km/h
Temperatur: 19°C
Daggpunkt: 12°C
Luftfuktighet: 64%
Barometer: 1016.3 hPa
Clouds: Genommulet
Visibility: 16 km
Cloud details: Few Clouds 366 m
Delvis molnigt 1280 m
Genommulet 5486 m
2020/05/31 19:53 KOAK 311953Z 26007KT 10SM FEW012 SCT042 OVC180 19/12 A3001 RMK AO2 SLP161 T01890117
KSQL - San Carlos Airpo, California, USA
Distance from station: NV 34km
Uppdaterad: 2020-05-31 21:48
Övervägande molnigt
Övervägande molnigt
 Vind från NV
Vind: NV 7 km/h
Temperatur: 19°C
Daggpunkt: 12°C
Luftfuktighet: 64%
Barometer: 1015.9 hPa
Clouds: Övervägande molnigt
Visibility: 16 km
Cloud details: Övervägande molnigt 853 m
Övervägande molnigt 1036 m
2020/05/31 19:48 KSQL 311948Z 32004KT 10SM BKN028 BKN034 19/12 A3000
 
KSFO - San Francisco, California, USA
Distance from station: NV 49km
Uppdaterad: 2020-05-31 21:56
Genommulet
Genommulet
 Vind från VNV
Vind: VNV 19 km/h
Temperatur: 18°C
Daggpunkt: 11°C
Luftfuktighet: 64%
Barometer: 1015.9 hPa
Clouds: Genommulet
Visibility: 16 km
Cloud details: Few Clouds 274 m
Övervägande molnigt 1189 m
Genommulet 6096 m
2020/05/31 19:56 KSFO 311956Z 29010KT 10SM FEW009 BKN039 OVC200 18/11 A3000 RMK AO2 SLP158 T01830111
KE16 - San Martin, California, USA
Distance from station: OSO 43km
Uppdaterad: 2020-05-31 22:25
Klart
Klart
 Vind från SSV
Vind: SSV 9 km/h
Temperatur: 20°C
Daggpunkt: 12°C
Luftfuktighet: 60%
Barometer: 1015.6 hPa
Clouds: Klart
Visibility: 16 km
2020/05/31 20:25 KE16 312025Z AUTO 20005KT 10SM CLR 20/12 A2999 RMK AO2 PWINO PNO
 
KWVI - Watsonville, California, USA
Distance from station: SSO 44km
Uppdaterad: 2020-05-31 22:02
Delvis molnigt
Delvis molnigt
 Vind från varies
Vind: varies 9 km/h
Temperatur: 19°C
Daggpunkt: 13°C
Luftfuktighet: 68%
Barometer: 1015.9 hPa
Clouds: Delvis molnigt
Visibility: 16 km
Cloud details: Delvis molnigt 762 m
2020/05/31 20:02 KWVI 312002Z AUTO VRB05KT 10SM SCT025 19/13 A3000 RMK AO2 T01940128
KHAF - Half Moon Bay, California, USA
Distance from station: VNV 50km
Uppdaterad: 2020-05-31 22:40
Övervägande molnigt
Övervägande molnigt
 Vind från NV
Vind: NV 19 km/h
Temperatur: 17°C
Daggpunkt: 13°C
Luftfuktighet: 77%
Barometer: 1016.3 hPa
Clouds: Övervägande molnigt
Visibility: 16 km
Cloud details: Övervägande molnigt 335 m
Övervägande molnigt 1128 m
2020/05/31 20:40 KHAF 312040Z AUTO 31010KT 10SM BKN011 BKN037 17/13 A3001 RMK AO2
 
KHWD - Hayward, California, USA
Distance from station: N 44km
Uppdaterad: 2020-05-31 21:54
Klart
Klart
 Vind från varies
Vind: varies 11 km/h
Temperatur: 19°C
Daggpunkt: 12°C
Luftfuktighet: 64%
Barometer: 1015.9 hPa
Clouds: Klart
Visibility: 16 km
2020/05/31 19:54 KHWD 311954Z VRB06KT 10SM CLR 19/12 A3000 RMK AO2 SLP166 T01890117
KLVK - Livermore, California, USA
Distance from station: NNO 51km
Uppdaterad: 2020-05-31 22:20
Övervägande molnigt
Övervägande molnigt
 Vind från varies
Vind: varies 9 km/h
Temperatur: 21°C
Daggpunkt: 12°C
Luftfuktighet: 57%
Barometer: 1014.9 hPa
Clouds: Övervägande molnigt
Visibility: 16 km
Cloud details: Övervägande molnigt 945 m
2020/05/31 20:20 KLVK 312020Z VRB05KT 10SM BKN031 21/12 A2997 RMK AO2 T02060117